createdAt,value
2024-02-28T00:00:59.781Z,7.63
2024-02-28T00:03:40.104Z,7.56
2024-02-28T00:06:26.706Z,7.63
2024-02-28T00:09:13.712Z,7.78
2024-02-28T00:12:01.685Z,7.82
2024-02-28T00:14:48.729Z,7.84
2024-02-28T00:17:28.944Z,7.88
2024-02-28T00:20:16.636Z,7.53
2024-02-28T00:22:56.743Z,7.32
2024-02-28T00:25:43.752Z,7.21
2024-02-28T00:28:30.707Z,7.39
2024-02-28T00:31:10.592Z,7.49
2024-02-28T00:33:57.707Z,7.56
2024-02-28T00:36:48.154Z,7.60
2024-02-28T00:39:42.651Z,7.72
2024-02-28T00:42:29.625Z,7.68
2024-02-28T00:45:17.608Z,7.74
2024-02-28T00:47:57.955Z,7.51
2024-02-28T00:50:44.596Z,7.40
2024-02-28T00:53:25.766Z,7.27
2024-02-28T00:56:12.641Z,7.39
2024-02-28T00:58:52.636Z,7.22
2024-02-28T01:01:39.741Z,7.43
2024-02-28T01:04:19.694Z,7.52
2024-02-28T01:07:06.648Z,7.55
2024-02-28T01:09:46.723Z,7.51
2024-02-28T01:12:33.625Z,7.16
2024-02-28T01:15:14.407Z,7.08
2024-02-28T01:18:01.623Z,7.01
2024-02-28T01:20:41.673Z,6.90
2024-02-28T01:23:28.952Z,6.99
2024-02-28T01:26:08.642Z,7.15
2024-02-28T01:28:56.562Z,7.21
2024-02-28T01:31:36.760Z,7.17
2024-02-28T01:34:23.616Z,7.23
2024-02-28T01:37:03.737Z,7.16
2024-02-28T01:39:50.621Z,7.24
2024-02-28T01:42:31.895Z,7.29
2024-02-28T01:45:22.544Z,7.11
2024-02-28T01:48:09.533Z,7.05
2024-02-28T01:50:56.495Z,7.05
2024-02-28T01:53:36.611Z,7.01
2024-02-28T01:56:24.525Z,7.00
2024-02-28T01:59:05.587Z,6.88
2024-02-28T02:01:52.547Z,6.69
2024-02-28T02:04:32.593Z,6.70
2024-02-28T02:07:19.526Z,6.55
2024-02-28T02:10:06.492Z,6.44
2024-02-28T02:12:46.868Z,6.39
2024-02-28T02:15:33.530Z,6.32
2024-02-28T02:18:13.994Z,6.31
2024-02-28T02:21:06.522Z,6.23
2024-02-28T02:23:47.029Z,6.39
2024-02-28T02:26:33.441Z,6.33
2024-02-28T02:29:14.485Z,6.28
2024-02-28T02:32:01.441Z,6.26
2024-02-28T02:34:48.542Z,6.31
2024-02-28T02:37:28.532Z,6.34
2024-02-28T02:40:16.452Z,6.25
2024-02-28T02:43:03.423Z,6.25
2024-02-28T02:45:50.602Z,6.12
2024-02-28T02:48:30.461Z,6.20
2024-02-28T02:51:18.903Z,6.21
2024-02-28T02:53:58.435Z,6.13
2024-02-28T02:56:56.396Z,6.15
2024-02-28T02:59:37.526Z,5.95
2024-02-28T03:02:24.420Z,6.00
2024-02-28T03:05:12.431Z,6.03
2024-02-28T03:07:59.444Z,5.95
2024-02-28T03:10:47.395Z,6.07
2024-02-28T03:13:27.554Z,6.15
2024-02-28T03:16:14.547Z,6.12
2024-02-28T03:18:54.953Z,6.18
2024-02-28T03:21:41.453Z,6.15
2024-02-28T03:24:21.528Z,6.19
2024-02-28T03:27:08.388Z,6.11
2024-02-28T03:29:48.904Z,6.01
2024-02-28T03:32:35.431Z,5.98
2024-02-28T03:35:15.415Z,6.02
2024-02-28T03:38:02.370Z,5.98
2024-02-28T03:40:42.460Z,5.97
2024-02-28T03:43:29.378Z,5.90
2024-02-28T03:46:17.389Z,5.81
2024-02-28T04:03:23.931Z,4.91
2024-02-28T04:06:10.998Z,5.04
2024-02-28T04:08:50.897Z,5.09
2024-02-28T04:11:31.246Z,5.25
2024-02-28T04:14:17.905Z,5.24
2024-02-28T04:17:04.924Z,5.36
2024-02-28T04:19:44.855Z,5.48
2024-02-28T04:22:25.270Z,5.48
2024-02-28T04:25:12.861Z,5.43
2024-02-28T04:27:59.949Z,5.52
2024-02-28T04:30:39.925Z,5.57
2024-02-28T04:33:27.016Z,5.62
2024-02-28T04:36:06.820Z,5.59
2024-02-28T04:38:47.164Z,5.54
2024-02-28T04:41:33.860Z,5.55
2024-02-28T04:44:20.867Z,5.53
2024-02-28T04:47:00.894Z,5.53
2024-02-28T04:49:47.782Z,5.61
2024-02-28T04:52:34.850Z,5.58
2024-02-28T04:55:15.342Z,5.66
2024-02-28T04:58:01.865Z,5.72
2024-02-28T05:00:42.275Z,5.85
2024-02-28T05:03:29.962Z,5.90
2024-02-28T05:06:16.897Z,5.96
2024-02-28T05:08:56.904Z,6.14
2024-02-28T05:11:43.837Z,6.28
2024-02-28T05:14:24.037Z,6.52
2024-02-28T05:17:10.833Z,6.63
2024-02-28T05:19:50.881Z,6.91
2024-02-28T05:22:37.794Z,7.18
2024-02-28T05:25:24.833Z,7.53
2024-02-28T05:28:05.620Z,8.02
2024-02-28T05:30:52.834Z,8.21
2024-02-28T05:33:33.111Z,8.50
2024-02-28T05:36:19.764Z,8.71
2024-02-28T05:39:08.746Z,8.94
2024-02-28T05:41:48.885Z,9.46
2024-02-28T05:44:35.753Z,9.47
2024-02-28T05:47:15.926Z,9.76
2024-02-28T05:50:03.780Z,9.94
2024-02-28T05:52:44.056Z,10.59
2024-02-28T05:55:31.736Z,10.47
2024-02-28T05:58:18.783Z,11.29
2024-02-28T06:01:12.843Z,11.49
2024-02-28T06:03:59.826Z,12.21
2024-02-28T06:06:46.745Z,12.39
2024-02-28T06:09:36.791Z,12.51
2024-02-28T06:12:23.720Z,12.55
2024-02-28T06:15:05.873Z,12.64
2024-02-28T06:17:52.771Z,12.08
2024-02-28T06:20:46.670Z,12.33
2024-02-28T06:23:29.076Z,12.62
2024-02-28T06:26:22.675Z,13.46
2024-02-28T06:29:05.514Z,14.03
2024-02-28T06:31:52.651Z,14.44
2024-02-28T06:34:33.259Z,14.39
2024-02-28T06:37:19.682Z,13.79
2024-02-28T06:40:00.087Z,13.12
2024-02-28T06:42:46.725Z,13.09
2024-02-28T06:45:27.273Z,13.24
2024-02-28T06:48:13.773Z,12.98
2024-02-28T06:50:54.028Z,13.06
2024-02-28T06:53:40.623Z,13.25
2024-02-28T06:56:21.005Z,13.30
2024-02-28T06:59:07.662Z,13.17
2024-02-28T07:02:01.724Z,13.14
2024-02-28T07:04:43.291Z,13.32
2024-02-28T07:07:29.648Z,13.17
2024-02-28T07:10:16.740Z,12.63
2024-02-28T07:12:56.730Z,12.61
2024-02-28T07:15:37.139Z,12.64
2024-02-28T07:18:23.689Z,12.89
2024-02-28T07:21:04.288Z,12.58
2024-02-28T07:23:54.646Z,12.55
2024-02-28T07:26:34.918Z,12.40
2024-02-28T07:29:21.632Z,12.79
2024-02-28T07:32:08.728Z,12.92
2024-02-28T07:34:48.652Z,13.09
2024-02-28T07:37:28.966Z,13.30
2024-02-28T07:40:15.573Z,13.72
2024-02-28T07:42:55.936Z,13.75
2024-02-28T07:45:42.686Z,13.97
2024-02-28T07:48:36.655Z,13.82
2024-02-28T07:51:25.687Z,13.92
2024-02-28T07:54:05.583Z,13.82
2024-02-28T07:56:52.700Z,14.87
2024-02-28T07:59:32.617Z,15.16
2024-02-28T08:02:14.204Z,14.87
2024-02-28T08:05:01.518Z,14.19
2024-02-28T08:07:43.059Z,13.96
2024-02-28T08:10:29.599Z,13.66
2024-02-28T08:13:10.024Z,13.45
2024-02-28T08:15:56.571Z,13.87
2024-02-28T08:18:43.712Z,14.62
2024-02-28T08:21:23.580Z,14.08
2024-02-28T08:24:06.059Z,14.91
2024-02-28T08:26:52.576Z,14.95
2024-02-28T08:29:33.948Z,16.87
2024-02-28T08:32:20.546Z,17.35
2024-02-28T08:35:08.545Z,18.81
2024-02-28T08:37:48.583Z,19.18
2024-02-28T08:40:35.581Z,18.77
2024-02-28T08:43:15.596Z,17.97
2024-02-28T08:46:02.644Z,18.79
2024-02-28T08:48:42.681Z,19.76
2024-02-28T08:51:29.490Z,19.53
2024-02-28T08:54:10.002Z,19.32
2024-02-28T08:57:00.326Z,20.55
2024-02-28T08:59:43.589Z,19.66
2024-02-28T09:02:30.528Z,19.05
2024-02-28T09:05:11.742Z,18.41
2024-02-28T09:08:00.498Z,19.91
2024-02-28T09:10:47.483Z,18.08
2024-02-28T09:13:35.576Z,20.30
2024-02-28T09:16:15.695Z,20.36
2024-02-28T09:19:02.552Z,20.14
2024-02-28T09:21:42.569Z,21.27
2024-02-28T09:24:29.470Z,20.18
2024-02-28T09:27:16.574Z,21.58
2024-02-28T09:29:56.839Z,22.67
2024-02-28T09:32:43.444Z,20.89
2024-02-28T09:35:23.902Z,20.98
2024-02-28T09:38:10.518Z,20.31
2024-02-28T09:40:57.458Z,18.77
2024-02-28T09:43:39.504Z,19.22
2024-02-28T09:46:26.465Z,18.73
2024-02-28T09:49:10.634Z,20.09
2024-02-28T09:51:58.537Z,21.57
2024-02-28T09:54:45.531Z,21.95
2024-02-28T09:57:29.899Z,21.99
2024-02-28T10:00:17.450Z,22.21
2024-02-28T10:03:05.437Z,22.37
2024-02-28T10:05:46.214Z,22.01
2024-02-28T10:08:33.470Z,23.15
2024-02-28T10:11:20.491Z,22.34
2024-02-28T10:14:07.671Z,21.17
2024-02-28T10:16:50.438Z,20.48
2024-02-28T10:19:30.879Z,21.12
2024-02-28T10:22:17.438Z,20.43
2024-02-28T10:25:00.268Z,20.34
2024-02-28T10:27:48.393Z,20.81
2024-02-28T10:30:29.315Z,20.00
2024-02-28T10:33:16.424Z,18.84
2024-02-28T10:36:03.392Z,19.56
2024-02-28T10:38:50.480Z,18.99
2024-02-28T10:41:38.394Z,19.62
2024-02-28T10:44:20.525Z,20.28
2024-02-28T10:47:12.888Z,20.99
2024-02-28T10:49:53.809Z,21.75
2024-02-28T10:52:41.384Z,20.68
2024-02-28T10:55:21.517Z,19.67
2024-02-28T10:58:18.391Z,18.82
2024-02-28T11:01:05.497Z,17.67
2024-02-28T11:04:00.406Z,15.93
2024-02-28T11:07:03.422Z,14.69
2024-02-28T11:09:43.507Z,14.41
2024-02-28T11:12:37.405Z,13.95
2024-02-28T11:15:31.419Z,12.49
2024-02-28T11:18:18.412Z,12.25
2024-02-28T11:20:58.389Z,12.14
2024-02-28T11:23:45.347Z,11.28
2024-02-28T11:26:25.729Z,11.68
2024-02-28T11:29:19.344Z,11.65
2024-02-28T11:32:00.001Z,11.41
2024-02-28T11:34:48.310Z,11.29
2024-02-28T11:37:36.342Z,11.54
2024-02-28T11:40:16.473Z,11.43
2024-02-28T11:43:04.357Z,10.86
2024-02-28T11:45:50.279Z,11.00
2024-02-28T11:48:37.369Z,10.78
2024-02-28T11:51:17.462Z,10.57
2024-02-28T11:54:04.290Z,10.20
2024-02-28T11:56:57.607Z,10.48
2024-02-28T11:59:38.619Z,10.61
2024-02-28T12:02:31.312Z,10.62
2024-02-28T12:05:11.624Z,10.35
2024-02-28T12:07:58.288Z,10.40
2024-02-28T12:10:45.327Z,10.37
2024-02-28T12:13:26.351Z,10.55
2024-02-28T12:16:13.379Z,10.33
2024-02-28T12:19:02.375Z,10.09
2024-02-28T12:21:43.413Z,10.18
2024-02-28T12:24:30.328Z,10.16
2024-02-28T12:27:10.663Z,9.80
2024-02-28T12:30:04.283Z,9.84
2024-02-28T12:32:51.349Z,9.87
2024-02-28T12:35:31.291Z,9.81
2024-02-28T12:38:18.468Z,9.80
2024-02-28T12:40:58.278Z,9.92
2024-02-28T12:43:46.315Z,9.89
2024-02-28T12:46:26.316Z,10.06
2024-02-28T12:49:13.374Z,10.12
2024-02-28T12:51:54.265Z,10.22
2024-02-28T12:54:34.636Z,9.75
2024-02-28T12:57:24.250Z,10.01
2024-02-28T13:00:05.167Z,10.18
2024-02-28T13:02:52.162Z,10.28
2024-02-28T13:05:40.281Z,10.17
2024-02-28T13:08:21.258Z,9.84
2024-02-28T13:11:09.198Z,9.67
2024-02-28T13:13:56.250Z,9.60
2024-02-28T13:16:36.718Z,9.55
2024-02-28T13:19:23.188Z,9.68
2024-02-28T13:22:10.359Z,9.63
2024-02-28T13:24:50.269Z,9.33
2024-02-28T13:27:30.672Z,9.36
2024-02-28T13:30:18.164Z,8.95
2024-02-28T13:32:58.754Z,8.72
2024-02-28T13:35:46.220Z,8.94
2024-02-28T13:38:33.689Z,8.60
2024-02-28T13:41:14.149Z,8.51
2024-02-28T13:43:54.561Z,8.58
2024-02-28T13:46:41.155Z,8.77
2024-02-28T13:49:21.838Z,8.85
2024-02-28T13:52:08.296Z,8.87
2024-02-28T13:54:55.192Z,8.78
2024-02-28T13:57:35.436Z,8.65
2024-02-28T14:00:23.215Z,8.69
2024-02-28T14:03:18.116Z,8.58
2024-02-28T14:06:05.118Z,8.43
2024-02-28T14:08:45.259Z,8.19
2024-02-28T14:11:32.097Z,8.22
2024-02-28T14:14:13.079Z,8.14
2024-02-28T14:17:00.103Z,8.20
2024-02-28T14:19:40.191Z,8.27
2024-02-28T14:22:27.125Z,8.18
2024-02-28T14:25:07.364Z,8.21
2024-02-28T14:27:55.138Z,8.04
2024-02-28T14:30:35.240Z,8.02
2024-02-28T14:33:22.274Z,8.00
2024-02-28T14:36:02.279Z,8.03
2024-02-28T14:38:49.129Z,8.03
2024-02-28T14:41:29.186Z,7.86
2024-02-28T14:44:16.120Z,7.93
2024-02-28T14:47:15.626Z,7.83
2024-02-28T14:50:02.076Z,7.71
2024-02-28T14:52:42.169Z,7.51
2024-02-28T14:55:29.109Z,7.54
2024-02-28T14:58:16.189Z,7.60
2024-02-28T15:00:59.759Z,7.56
2024-02-28T15:03:48.120Z,7.50
2024-02-28T15:06:35.093Z,7.50
2024-02-28T15:09:22.074Z,7.43
2024-02-28T15:12:02.537Z,7.26
2024-02-28T15:14:49.052Z,7.19
2024-02-28T15:17:30.076Z,7.29
2024-02-28T15:20:17.015Z,7.22
2024-02-28T15:22:57.452Z,7.25
2024-02-28T15:25:44.055Z,7.31
2024-02-28T15:28:30.992Z,7.05
2024-02-28T15:31:11.159Z,7.09
2024-02-28T15:33:58.069Z,7.19
2024-02-28T15:36:38.788Z,7.24
2024-02-28T15:39:26.031Z,7.15
2024-02-28T15:42:13.013Z,7.11
2024-02-28T15:44:59.986Z,7.14
2024-02-28T15:47:41.812Z,7.05
2024-02-28T15:50:29.034Z,6.87
2024-02-28T16:05:47.339Z,6.34
2024-02-28T16:08:34.325Z,6.44
2024-02-28T16:11:24.364Z,6.46
2024-02-28T16:14:19.365Z,6.53
2024-02-28T16:17:06.340Z,6.42
2024-02-28T16:19:47.525Z,6.42
2024-02-28T16:22:34.357Z,6.35
2024-02-28T16:25:21.351Z,6.41
2024-02-28T16:28:08.479Z,6.48
2024-02-28T16:30:54.378Z,6.52
2024-02-28T16:33:48.319Z,6.48
2024-02-28T16:36:35.389Z,6.51
2024-02-28T16:39:15.952Z,6.45
2024-02-28T16:42:02.299Z,6.55
2024-02-28T16:44:44.026Z,6.62
2024-02-28T16:47:31.299Z,6.65
2024-02-28T16:50:18.291Z,6.58
2024-02-28T16:53:05.298Z,6.68
2024-02-28T16:55:52.235Z,6.70
2024-02-28T16:58:34.827Z,6.70
2024-02-28T17:01:21.322Z,6.71
2024-02-28T17:04:08.392Z,6.58
2024-02-28T17:06:50.698Z,6.64
2024-02-28T17:09:37.297Z,6.62
2024-02-28T17:12:17.301Z,6.69
2024-02-28T17:15:04.285Z,6.74
2024-02-28T17:17:44.598Z,6.77
2024-02-28T17:20:33.278Z,6.79
2024-02-28T17:23:13.682Z,6.85
2024-02-28T17:26:04.239Z,6.83
2024-02-28T17:28:44.451Z,6.80
2024-02-28T17:31:31.225Z,6.77
2024-02-28T17:34:14.956Z,6.80
2024-02-28T17:37:02.338Z,6.68
2024-02-28T17:39:42.379Z,6.61
2024-02-28T17:42:29.215Z,6.59
2024-02-28T17:45:12.523Z,6.65
2024-02-28T17:47:59.205Z,6.76
2024-02-28T17:50:39.674Z,6.73
2024-02-28T17:53:26.171Z,6.75
2024-02-28T17:56:14.235Z,6.80
2024-02-28T17:58:54.512Z,6.48
2024-02-28T18:01:42.268Z,6.26
2024-02-28T18:04:36.132Z,6.28
2024-02-28T18:07:24.134Z,6.39
2024-02-28T18:10:14.369Z,6.42
2024-02-28T18:13:02.292Z,6.48
2024-02-28T18:15:49.158Z,6.50
2024-02-28T18:18:31.382Z,6.59
2024-02-28T18:21:18.109Z,6.67
2024-02-28T18:24:05.160Z,6.43
2024-02-28T18:26:45.426Z,6.46
2024-02-28T18:29:32.173Z,6.51
2024-02-28T18:32:12.205Z,6.57
2024-02-28T18:34:59.659Z,6.51
2024-02-28T18:37:48.188Z,6.58
2024-02-28T18:40:35.112Z,6.61
2024-02-28T18:43:18.273Z,6.63
2024-02-28T18:46:05.216Z,6.58
2024-02-28T18:48:45.621Z,6.59
2024-02-28T18:51:35.164Z,6.57
2024-02-28T18:54:15.270Z,6.57
2024-02-28T18:57:02.157Z,6.52
2024-02-28T18:59:42.198Z,6.58
2024-02-28T19:02:29.139Z,6.44
2024-02-28T19:05:16.215Z,6.45
2024-02-28T19:07:59.112Z,6.43
2024-02-28T19:10:40.708Z,6.50
2024-02-28T19:13:27.141Z,6.52
2024-02-28T19:16:14.183Z,6.41
2024-02-28T19:19:01.086Z,6.46
2024-02-28T19:21:48.098Z,6.52
2024-02-28T19:24:28.221Z,6.55
2024-02-28T19:27:15.306Z,6.45
2024-02-28T19:29:55.244Z,6.49
2024-02-28T19:32:43.124Z,6.46
2024-02-28T19:35:30.077Z,6.39
2024-02-28T19:38:17.293Z,6.44
2024-02-28T19:40:57.142Z,6.34
2024-02-28T19:43:37.775Z,6.30
2024-02-28T19:46:25.047Z,6.32
2024-02-28T19:49:12.086Z,6.16
2024-02-28T19:51:52.173Z,6.28
2024-02-28T19:54:41.060Z,6.24
2024-02-28T19:57:28.000Z,6.32
2024-02-28T20:00:15.020Z,6.36
2024-02-28T20:03:02.045Z,6.48
2024-02-28T20:05:49.108Z,6.42
2024-02-28T20:08:28.985Z,6.57
2024-02-28T20:11:09.532Z,6.56
2024-02-28T20:13:56.025Z,6.45
2024-02-28T20:16:40.755Z,6.50
2024-02-28T20:19:28.005Z,6.42
2024-02-28T20:22:08.793Z,6.42
2024-02-28T20:24:56.016Z,6.39
2024-02-28T20:27:42.983Z,6.42
2024-02-28T20:30:23.046Z,6.42
2024-02-28T20:33:11.027Z,6.35
2024-02-28T20:35:51.098Z,6.46
2024-02-28T20:38:37.949Z,6.23
2024-02-28T20:41:26.014Z,6.32
2024-02-28T20:44:10.649Z,6.30
2024-02-28T20:46:58.016Z,6.32
2024-02-28T20:49:38.360Z,6.39
2024-02-28T20:52:24.989Z,6.36
2024-02-28T20:55:05.654Z,6.28
2024-02-28T20:57:52.971Z,6.40
2024-02-28T21:00:33.322Z,6.49
2024-02-28T21:03:19.941Z,6.52
2024-02-28T21:06:07.354Z,6.42
2024-02-28T21:08:47.925Z,6.38
2024-02-28T21:11:28.818Z,6.35
2024-02-28T21:14:15.908Z,6.35
2024-02-28T21:16:57.772Z,6.40
2024-02-28T21:19:45.852Z,6.45
2024-02-28T21:22:26.261Z,6.47
2024-02-28T21:25:12.915Z,6.52
2024-02-28T21:27:59.969Z,6.48
2024-02-28T21:30:39.951Z,6.58
2024-02-28T21:33:21.042Z,6.50
2024-02-28T21:36:07.889Z,6.47
2024-02-28T21:38:48.234Z,6.24
2024-02-28T21:41:34.914Z,6.18
2024-02-28T21:44:15.203Z,5.95
2024-02-28T21:47:01.852Z,5.97
2024-02-28T21:49:42.896Z,5.94
2024-02-28T21:52:30.813Z,5.93
2024-02-28T21:55:11.856Z,6.09
2024-02-28T21:57:58.826Z,6.19
2024-02-28T22:00:45.891Z,6.23
2024-02-28T22:03:25.923Z,6.31
2024-02-28T22:06:12.825Z,6.44
2024-02-28T22:09:03.805Z,6.45
2024-02-28T22:11:44.135Z,6.44
2024-02-28T22:14:30.807Z,6.45
2024-02-28T22:17:11.141Z,6.39
2024-02-28T22:19:57.808Z,6.20
2024-02-28T22:22:44.822Z,6.00
2024-02-28T22:25:24.928Z,5.97
2024-02-28T22:28:11.978Z,5.99
2024-02-28T22:30:51.999Z,5.86
2024-02-28T22:33:38.848Z,5.96
2024-02-28T22:36:19.831Z,6.00
2024-02-28T22:39:06.768Z,5.93
2024-02-28T22:41:46.861Z,6.00
2024-02-28T22:44:33.781Z,5.89
2024-02-28T22:47:13.892Z,5.83
2024-02-28T22:50:00.798Z,5.74
2024-02-28T22:52:41.832Z,5.85
2024-02-28T22:55:28.784Z,5.83
2024-02-28T22:58:15.775Z,5.87
2024-02-28T23:00:56.440Z,5.83
2024-02-28T23:03:43.789Z,5.89
2024-02-28T23:06:30.978Z,5.98
2024-02-28T23:09:12.757Z,6.15
2024-02-28T23:11:53.288Z,6.20
2024-02-28T23:14:40.668Z,6.28
2024-02-28T23:17:21.488Z,6.36
2024-02-28T23:20:08.721Z,6.26
2024-02-28T23:22:49.065Z,6.34
2024-02-28T23:25:36.775Z,6.41
2024-02-28T23:28:23.847Z,6.44
2024-02-28T23:31:03.835Z,6.39
2024-02-28T23:33:44.086Z,6.05
2024-02-28T23:36:30.791Z,5.99
2024-02-28T23:39:11.067Z,5.90
2024-02-28T23:42:00.690Z,5.81
2024-02-28T23:44:41.096Z,5.84
2024-02-28T23:47:27.737Z,5.83
2024-02-28T23:50:08.531Z,5.77
2024-02-28T23:52:55.750Z,5.91
2024-02-28T23:55:43.266Z,5.96
2024-02-28T23:58:22.726Z,5.89
